sensor_id;sensor_type;location;lat;lon;timestamp;P1;durP1;ratioP1;P2;durP2;ratioP2
21581;SDS011;10952;50.836;4.348;2023-05-10T00:01:25;20.67;;;8.00;;
21581;SDS011;10952;50.836;4.348;2023-05-10T00:03:50;17.30;;;8.13;;
21581;SDS011;10952;50.836;4.348;2023-05-10T00:06:16;21.90;;;8.83;;
21581;SDS011;10952;50.836;4.348;2023-05-10T00:08:42;17.23;;;8.40;;
21581;SDS011;10952;50.836;4.348;2023-05-10T00:11:08;17.43;;;7.53;;
21581;SDS011;10952;50.836;4.348;2023-05-10T00:13:34;18.27;;;8.90;;
21581;SDS011;10952;50.836;4.348;2023-05-10T00:15:59;18.27;;;8.50;;
21581;SDS011;10952;50.836;4.348;2023-05-10T00:18:25;16.60;;;8.17;;
21581;SDS011;10952;50.836;4.348;2023-05-10T00:20:51;20.47;;;8.80;;
21581;SDS011;10952;50.836;4.348;2023-05-10T00:23:16;19.47;;;9.40;;
21581;SDS011;10952;50.836;4.348;2023-05-10T00:25:42;20.80;;;8.90;;
21581;SDS011;10952;50.836;4.348;2023-05-10T00:28:08;16.33;;;8.27;;
21581;SDS011;10952;50.836;4.348;2023-05-10T00:30:33;15.33;;;9.07;;
21581;SDS011;10952;50.836;4.348;2023-05-10T00:32:59;20.37;;;8.23;;
21581;SDS011;10952;50.836;4.348;2023-05-10T00:35:25;15.13;;;8.50;;
21581;SDS011;10952;50.836;4.348;2023-05-10T00:37:51;18.53;;;8.60;;
21581;SDS011;10952;50.836;4.348;2023-05-10T00:40:16;21.00;;;9.00;;
21581;SDS011;10952;50.836;4.348;2023-05-10T00:42:42;20.40;;;9.03;;
21581;SDS011;10952;50.836;4.348;2023-05-10T00:45:08;20.30;;;8.53;;
21581;SDS011;10952;50.836;4.348;2023-05-10T00:47:34;17.17;;;8.80;;
21581;SDS011;10952;50.836;4.348;2023-05-10T00:50:00;18.03;;;8.97;;
21581;SDS011;10952;50.836;4.348;2023-05-10T00:52:27;17.20;;;8.93;;
21581;SDS011;10952;50.836;4.348;2023-05-10T00:54:54;18.77;;;9.10;;
21581;SDS011;10952;50.836;4.348;2023-05-10T00:57:19;19.80;;;9.33;;
21581;SDS011;10952;50.836;4.348;2023-05-10T00:59:46;15.50;;;9.07;;
21581;SDS011;10952;50.836;4.348;2023-05-10T01:02:12;17.27;;;9.53;;
21581;SDS011;10952;50.836;4.348;2023-05-10T01:04:38;17.20;;;8.97;;
21581;SDS011;10952;50.836;4.348;2023-05-10T01:07:04;17.70;;;10.20;;
21581;SDS011;10952;50.836;4.348;2023-05-10T01:09:30;22.20;;;10.03;;
21581;SDS011;10952;50.836;4.348;2023-05-10T01:11:56;18.30;;;9.60;;
21581;SDS011;10952;50.836;4.348;2023-05-10T01:14:22;19.30;;;10.00;;
21581;SDS011;10952;50.836;4.348;2023-05-10T01:16:48;21.07;;;9.83;;
21581;SDS011;10952;50.836;4.348;2023-05-10T01:19:25;18.50;;;10.73;;
21581;SDS011;10952;50.836;4.348;2023-05-10T01:21:56;18.30;;;10.63;;
21581;SDS011;10952;50.836;4.348;2023-05-10T01:35:37;16.90;;;9.77;;
21581;SDS011;10952;50.836;4.348;2023-05-10T01:46:24;18.37;;;10.30;;
21581;SDS011;10952;50.836;4.348;2023-05-10T01:48:58;19.57;;;10.60;;
21581;SDS011;10952;50.836;4.348;2023-05-10T01:51:27;20.70;;;11.20;;
21581;SDS011;10952;50.836;4.348;2023-05-10T01:53:58;19.93;;;10.47;;
21581;SDS011;10952;50.836;4.348;2023-05-10T01:56:28;20.03;;;10.73;;
21581;SDS011;10952;50.836;4.348;2023-05-10T01:58:56;18.17;;;11.00;;
21581;SDS011;10952;50.836;4.348;2023-05-10T02:01:25;22.53;;;11.93;;
21581;SDS011;10952;50.836;4.348;2023-05-10T02:03:52;24.13;;;10.93;;
21581;SDS011;10952;50.836;4.348;2023-05-10T02:06:20;21.27;;;11.40;;
21581;SDS011;10952;50.836;4.348;2023-05-10T02:08:49;21.50;;;11.13;;
21581;SDS011;10952;50.836;4.348;2023-05-10T02:11:16;19.57;;;10.73;;
21581;SDS011;10952;50.836;4.348;2023-05-10T02:13:43;22.80;;;12.03;;
21581;SDS011;10952;50.836;4.348;2023-05-10T02:16:12;18.83;;;10.20;;
21581;SDS011;10952;50.836;4.348;2023-05-10T02:18:39;22.77;;;12.20;;
21581;SDS011;10952;50.836;4.348;2023-05-10T02:21:06;19.70;;;11.17;;
21581;SDS011;10952;50.836;4.348;2023-05-10T02:23:34;20.10;;;11.50;;
21581;SDS011;10952;50.836;4.348;2023-05-10T02:26:00;19.37;;;11.07;;
21581;SDS011;10952;50.836;4.348;2023-05-10T02:28:27;22.50;;;11.97;;
21581;SDS011;10952;50.836;4.348;2023-05-10T02:30:54;24.37;;;11.20;;
21581;SDS011;10952;50.836;4.348;2023-05-10T02:33:20;22.43;;;11.63;;
21581;SDS011;10952;50.836;4.348;2023-05-10T02:35:47;19.40;;;10.40;;
21581;SDS011;10952;50.836;4.348;2023-05-10T02:38:15;23.83;;;11.53;;
21581;SDS011;10952;50.836;4.348;2023-05-10T02:40:42;19.53;;;10.10;;
21581;SDS011;10952;50.836;4.348;2023-05-10T02:43:12;19.40;;;10.43;;
21581;SDS011;10952;50.836;4.348;2023-05-10T02:45:40;23.83;;;10.77;;
21581;SDS011;10952;50.836;4.348;2023-05-10T02:48:08;24.70;;;11.37;;
21581;SDS011;10952;50.836;4.348;2023-05-10T02:50:33;19.07;;;10.13;;
21581;SDS011;10952;50.836;4.348;2023-05-10T02:53:03;19.87;;;10.13;;
21581;SDS011;10952;50.836;4.348;2023-05-10T02:55:36;19.07;;;10.23;;
21581;SDS011;10952;50.836;4.348;2023-05-10T02:58:05;19.53;;;9.80;;
21581;SDS011;10952;50.836;4.348;2023-05-10T03:00:31;20.80;;;10.20;;
21581;SDS011;10952;50.836;4.348;2023-05-10T03:02:57;23.67;;;10.13;;
21581;SDS011;10952;50.836;4.348;2023-05-10T03:05:23;22.27;;;9.73;;
21581;SDS011;10952;50.836;4.348;2023-05-10T03:07:49;20.77;;;9.97;;
21581;SDS011;10952;50.836;4.348;2023-05-10T03:10:16;27.40;;;11.03;;
21581;SDS011;10952;50.836;4.348;2023-05-10T03:15:12;22.67;;;11.90;;
21581;SDS011;10952;50.836;4.348;2023-05-10T03:20:21;21.30;;;10.50;;
21581;SDS011;10952;50.836;4.348;2023-05-10T03:23:13;24.90;;;11.37;;
21581;SDS011;10952;50.836;4.348;2023-05-10T03:25:48;22.17;;;9.93;;
21581;SDS011;10952;50.836;4.348;2023-05-10T03:28:16;22.73;;;11.00;;
21581;SDS011;10952;50.836;4.348;2023-05-10T03:30:43;21.97;;;11.73;;
21581;SDS011;10952;50.836;4.348;2023-05-10T03:33:10;21.77;;;11.13;;
21581;SDS011;10952;50.836;4.348;2023-05-10T03:35:35;21.40;;;11.30;;
21581;SDS011;10952;50.836;4.348;2023-05-10T03:38:01;29.23;;;12.47;;
21581;SDS011;10952;50.836;4.348;2023-05-10T03:40:27;26.97;;;14.80;;
21581;SDS011;10952;50.836;4.348;2023-05-10T03:42:56;24.20;;;12.37;;
21581;SDS011;10952;50.836;4.348;2023-05-10T03:45:22;24.93;;;13.33;;
21581;SDS011;10952;50.836;4.348;2023-05-10T03:47:47;26.07;;;13.57;;
21581;SDS011;10952;50.836;4.348;2023-05-10T03:50:13;31.70;;;14.97;;
21581;SDS011;10952;50.836;4.348;2023-05-10T03:52:39;26.03;;;14.13;;
21581;SDS011;10952;50.836;4.348;2023-05-10T03:55:05;24.70;;;14.10;;
21581;SDS011;10952;50.836;4.348;2023-05-10T03:57:31;27.03;;;14.40;;
21581;SDS011;10952;50.836;4.348;2023-05-10T03:59:57;25.47;;;14.83;;
21581;SDS011;10952;50.836;4.348;2023-05-10T04:02:22;25.77;;;14.63;;
21581;SDS011;10952;50.836;4.348;2023-05-10T04:04:48;26.63;;;14.73;;
21581;SDS011;10952;50.836;4.348;2023-05-10T04:07:14;30.33;;;16.23;;
21581;SDS011;10952;50.836;4.348;2023-05-10T04:09:40;31.63;;;15.47;;
21581;SDS011;10952;50.836;4.348;2023-05-10T04:12:05;28.80;;;15.97;;
21581;SDS011;10952;50.836;4.348;2023-05-10T04:14:31;31.70;;;15.27;;
21581;SDS011;10952;50.836;4.348;2023-05-10T04:16:57;33.27;;;16.97;;
21581;SDS011;10952;50.836;4.348;2023-05-10T04:19:23;32.97;;;16.97;;
21581;SDS011;10952;50.836;4.348;2023-05-10T04:21:48;36.97;;;18.70;;
21581;SDS011;10952;50.836;4.348;2023-05-10T04:24:14;36.23;;;17.50;;
21581;SDS011;10952;50.836;4.348;2023-05-10T04:26:40;35.33;;;17.43;;
21581;SDS011;10952;50.836;4.348;2023-05-10T04:29:06;35.17;;;17.30;;
21581;SDS011;10952;50.836;4.348;2023-05-10T04:31:31;33.60;;;18.30;;
21581;SDS011;10952;50.836;4.348;2023-05-10T04:33:57;37.20;;;17.43;;
21581;SDS011;10952;50.836;4.348;2023-05-10T04:36:23;31.13;;;17.33;;
21581;SDS011;10952;50.836;4.348;2023-05-10T04:38:48;33.67;;;16.47;;
21581;SDS011;10952;50.836;4.348;2023-05-10T04:41:14;32.00;;;16.90;;
21581;SDS011;10952;50.836;4.348;2023-05-10T04:43:40;36.87;;;16.90;;
21581;SDS011;10952;50.836;4.348;2023-05-10T04:46:05;35.73;;;18.00;;
21581;SDS011;10952;50.836;4.348;2023-05-10T04:48:32;37.30;;;18.30;;
21581;SDS011;10952;50.836;4.348;2023-05-10T04:50:58;35.80;;;18.33;;
21581;SDS011;10952;50.836;4.348;2023-05-10T04:53:24;32.90;;;17.03;;
21581;SDS011;10952;50.836;4.348;2023-05-10T04:55:49;30.47;;;18.47;;
21581;SDS011;10952;50.836;4.348;2023-05-10T04:58:15;37.93;;;18.17;;
21581;SDS011;10952;50.836;4.348;2023-05-10T05:00:41;32.30;;;17.20;;
21581;SDS011;10952;50.836;4.348;2023-05-10T05:03:07;35.30;;;18.03;;
21581;SDS011;10952;50.836;4.348;2023-05-10T05:05:33;34.50;;;19.33;;
21581;SDS011;10952;50.836;4.348;2023-05-10T05:07:58;35.87;;;18.10;;
21581;SDS011;10952;50.836;4.348;2023-05-10T05:10:24;35.10;;;18.67;;
21581;SDS011;10952;50.836;4.348;2023-05-10T05:12:49;36.33;;;18.93;;
21581;SDS011;10952;50.836;4.348;2023-05-10T05:15:15;33.53;;;16.60;;
21581;SDS011;10952;50.836;4.348;2023-05-10T05:17:42;26.80;;;13.90;;
21581;SDS011;10952;50.836;4.348;2023-05-10T05:20:08;25.90;;;14.67;;
21581;SDS011;10952;50.836;4.348;2023-05-10T05:22:35;26.77;;;14.70;;
21581;SDS011;10952;50.836;4.348;2023-05-10T05:25:01;25.90;;;12.87;;
21581;SDS011;10952;50.836;4.348;2023-05-10T05:27:28;27.97;;;13.97;;
21581;SDS011;10952;50.836;4.348;2023-05-10T05:29:54;26.07;;;13.87;;
21581;SDS011;10952;50.836;4.348;2023-05-10T05:32:20;28.30;;;13.87;;
21581;SDS011;10952;50.836;4.348;2023-05-10T05:34:46;24.67;;;12.80;;
21581;SDS011;10952;50.836;4.348;2023-05-10T05:37:13;23.97;;;13.23;;
21581;SDS011;10952;50.836;4.348;2023-05-10T05:39:44;25.23;;;12.70;;
21581;SDS011;10952;50.836;4.348;2023-05-10T05:42:10;30.33;;;12.63;;
21581;SDS011;10952;50.836;4.348;2023-05-10T05:44:36;24.10;;;13.63;;
21581;SDS011;10952;50.836;4.348;2023-05-10T05:47:02;27.03;;;12.37;;
21581;SDS011;10952;50.836;4.348;2023-05-10T05:49:28;23.87;;;12.73;;
21581;SDS011;10952;50.836;4.348;2023-05-10T05:51:54;26.70;;;13.70;;
21581;SDS011;10952;50.836;4.348;2023-05-10T05:54:24;34.20;;;14.37;;
21581;SDS011;10952;50.836;4.348;2023-05-10T05:56:49;26.23;;;13.90;;
21581;SDS011;10952;50.836;4.348;2023-05-10T05:59:15;23.03;;;13.27;;
21581;SDS011;10952;50.836;4.348;2023-05-10T06:01:41;29.53;;;14.10;;
21581;SDS011;10952;50.836;4.348;2023-05-10T06:04:06;29.07;;;15.37;;
21581;SDS011;10952;50.836;4.348;2023-05-10T06:06:32;28.80;;;16.07;;
21581;SDS011;10952;50.836;4.348;2023-05-10T06:08:58;32.07;;;16.10;;
21581;SDS011;10952;50.836;4.348;2023-05-10T06:11:23;27.80;;;13.87;;
21581;SDS011;10952;50.836;4.348;2023-05-10T06:13:50;27.03;;;13.23;;
21581;SDS011;10952;50.836;4.348;2023-05-10T06:16:16;28.50;;;12.30;;
21581;SDS011;10952;50.836;4.348;2023-05-10T06:18:42;26.23;;;11.57;;
21581;SDS011;10952;50.836;4.348;2023-05-10T06:21:08;21.67;;;12.07;;
21581;SDS011;10952;50.836;4.348;2023-05-10T06:23:34;20.53;;;10.30;;
21581;SDS011;10952;50.836;4.348;2023-05-10T06:26:00;25.00;;;10.60;;
21581;SDS011;10952;50.836;4.348;2023-05-10T06:28:26;15.50;;;9.17;;
21581;SDS011;10952;50.836;4.348;2023-05-10T06:30:51;18.67;;;9.13;;
21581;SDS011;10952;50.836;4.348;2023-05-10T06:33:17;18.10;;;9.50;;
21581;SDS011;10952;50.836;4.348;2023-05-10T06:35:43;23.70;;;9.00;;
21581;SDS011;10952;50.836;4.348;2023-05-10T06:38:08;19.23;;;8.57;;
21581;SDS011;10952;50.836;4.348;2023-05-10T06:40:34;15.13;;;7.47;;
21581;SDS011;10952;50.836;4.348;2023-05-10T06:43:00;18.47;;;8.63;;
21581;SDS011;10952;50.836;4.348;2023-05-10T06:45:26;18.33;;;8.87;;
21581;SDS011;10952;50.836;4.348;2023-05-10T06:47:52;16.27;;;8.93;;
21581;SDS011;10952;50.836;4.348;2023-05-10T06:50:18;12.87;;;7.63;;
21581;SDS011;10952;50.836;4.348;2023-05-10T06:52:43;15.37;;;8.17;;
21581;SDS011;10952;50.836;4.348;2023-05-10T06:55:09;17.57;;;9.23;;
21581;SDS011;10952;50.836;4.348;2023-05-10T06:57:35;21.30;;;9.20;;
21581;SDS011;10952;50.836;4.348;2023-05-10T07:00:02;17.83;;;8.70;;
21581;SDS011;10952;50.836;4.348;2023-05-10T07:02:29;26.80;;;9.73;;
21581;SDS011;10952;50.836;4.348;2023-05-10T07:04:55;19.40;;;9.60;;
21581;SDS011;10952;50.836;4.348;2023-05-10T07:07:22;17.70;;;10.13;;
21581;SDS011;10952;50.836;4.348;2023-05-10T07:09:48;24.27;;;10.47;;
21581;SDS011;10952;50.836;4.348;2023-05-10T07:12:14;19.37;;;10.43;;
21581;SDS011;10952;50.836;4.348;2023-05-10T07:14:41;23.83;;;11.00;;
21581;SDS011;10952;50.836;4.348;2023-05-10T07:17:07;18.37;;;9.90;;
21581;SDS011;10952;50.836;4.348;2023-05-10T07:19:33;22.53;;;10.17;;
21581;SDS011;10952;50.836;4.348;2023-05-10T07:21:58;25.17;;;10.13;;
21581;SDS011;10952;50.836;4.348;2023-05-10T07:24:24;18.67;;;10.27;;
21581;SDS011;10952;50.836;4.348;2023-05-10T07:26:50;20.57;;;11.13;;
21581;SDS011;10952;50.836;4.348;2023-05-10T07:29:15;24.37;;;10.40;;
21581;SDS011;10952;50.836;4.348;2023-05-10T07:31:41;25.40;;;10.43;;
21581;SDS011;10952;50.836;4.348;2023-05-10T07:34:08;20.87;;;9.33;;
21581;SDS011;10952;50.836;4.348;2023-05-10T07:36:34;18.93;;;10.33;;
21581;SDS011;10952;50.836;4.348;2023-05-10T07:39:00;16.93;;;9.80;;
21581;SDS011;10952;50.836;4.348;2023-05-10T07:41:25;18.40;;;10.33;;
21581;SDS011;10952;50.836;4.348;2023-05-10T07:43:52;21.80;;;9.47;;
21581;SDS011;10952;50.836;4.348;2023-05-10T07:46:17;18.17;;;9.03;;
21581;SDS011;10952;50.836;4.348;2023-05-10T07:48:44;22.70;;;9.80;;
21581;SDS011;10952;50.836;4.348;2023-05-10T07:51:10;18.37;;;8.87;;
21581;SDS011;10952;50.836;4.348;2023-05-10T07:53:36;23.13;;;8.57;;
21581;SDS011;10952;50.836;4.348;2023-05-10T07:56:19;17.50;;;8.30;;
21581;SDS011;10952;50.836;4.348;2023-05-10T07:58:46;14.70;;;8.30;;
21581;SDS011;10952;50.836;4.348;2023-05-10T08:01:12;14.53;;;7.83;;
21581;SDS011;10952;50.836;4.348;2023-05-10T08:03:38;19.43;;;7.37;;
21581;SDS011;10952;50.836;4.348;2023-05-10T08:06:03;16.40;;;7.60;;
21581;SDS011;10952;50.836;4.348;2023-05-10T08:08:29;13.07;;;7.63;;
21581;SDS011;10952;50.836;4.348;2023-05-10T08:10:55;13.27;;;6.40;;
21581;SDS011;10952;50.836;4.348;2023-05-10T08:13:21;15.67;;;6.87;;
21581;SDS011;10952;50.836;4.348;2023-05-10T08:15:46;11.23;;;6.47;;
21581;SDS011;10952;50.836;4.348;2023-05-10T08:18:12;10.37;;;6.47;;
21581;SDS011;10952;50.836;4.348;2023-05-10T08:20:38;11.13;;;6.97;;
21581;SDS011;10952;50.836;4.348;2023-05-10T08:23:03;13.27;;;6.17;;
21581;SDS011;10952;50.836;4.348;2023-05-10T08:25:29;11.57;;;6.37;;
21581;SDS011;10952;50.836;4.348;2023-05-10T08:27:55;13.63;;;7.63;;
21581;SDS011;10952;50.836;4.348;2023-05-10T08:30:20;10.67;;;7.10;;
21581;SDS011;10952;50.836;4.348;2023-05-10T08:32:46;8.03;;;4.93;;
21581;SDS011;10952;50.836;4.348;2023-05-10T08:35:11;11.00;;;5.77;;
21581;SDS011;10952;50.836;4.348;2023-05-10T08:37:37;9.17;;;5.33;;
21581;SDS011;10952;50.836;4.348;2023-05-10T08:40:03;11.73;;;5.97;;
21581;SDS011;10952;50.836;4.348;2023-05-10T08:42:30;13.23;;;6.23;;
21581;SDS011;10952;50.836;4.348;2023-05-10T08:44:59;9.10;;;5.90;;
21581;SDS011;10952;50.836;4.348;2023-05-10T08:47:27;12.10;;;6.47;;
21581;SDS011;10952;50.836;4.348;2023-05-10T08:49:52;11.50;;;6.97;;
21581;SDS011;10952;50.836;4.348;2023-05-10T08:52:19;10.70;;;6.43;;
21581;SDS011;10952;50.836;4.348;2023-05-10T08:54:47;12.27;;;7.17;;
21581;SDS011;10952;50.836;4.348;2023-05-10T08:57:13;8.67;;;5.80;;
21581;SDS011;10952;50.836;4.348;2023-05-10T08:59:38;11.83;;;6.50;;
21581;SDS011;10952;50.836;4.348;2023-05-10T09:02:04;10.23;;;6.20;;
21581;SDS011;10952;50.836;4.348;2023-05-10T09:04:31;16.23;;;7.70;;
21581;SDS011;10952;50.836;4.348;2023-05-10T09:06:57;10.90;;;6.23;;
21581;SDS011;10952;50.836;4.348;2023-05-10T09:09:23;12.87;;;6.73;;
21581;SDS011;10952;50.836;4.348;2023-05-10T09:11:50;13.53;;;7.30;;
21581;SDS011;10952;50.836;4.348;2023-05-10T09:14:16;10.47;;;6.93;;
21581;SDS011;10952;50.836;4.348;2023-05-10T09:16:43;12.30;;;6.90;;
21581;SDS011;10952;50.836;4.348;2023-05-10T09:19:09;12.33;;;6.80;;
21581;SDS011;10952;50.836;4.348;2023-05-10T09:21:35;15.37;;;7.27;;
21581;SDS011;10952;50.836;4.348;2023-05-10T09:24:06;9.40;;;5.77;;
21581;SDS011;10952;50.836;4.348;2023-05-10T09:26:33;14.60;;;6.20;;
21581;SDS011;10952;50.836;4.348;2023-05-10T09:29:00;11.87;;;6.60;;
21581;SDS011;10952;50.836;4.348;2023-05-10T09:31:43;10.07;;;6.33;;
21581;SDS011;10952;50.836;4.348;2023-05-10T09:34:19;13.13;;;6.50;;
21581;SDS011;10952;50.836;4.348;2023-05-10T09:36:51;11.33;;;6.10;;
21581;SDS011;10952;50.836;4.348;2023-05-10T09:39:18;8.70;;;5.97;;
21581;SDS011;10952;50.836;4.348;2023-05-10T09:41:44;9.60;;;6.00;;
21581;SDS011;10952;50.836;4.348;2023-05-10T09:44:09;10.33;;;6.10;;
21581;SDS011;10952;50.836;4.348;2023-05-10T09:46:35;11.47;;;6.50;;
21581;SDS011;10952;50.836;4.348;2023-05-10T09:49:01;13.50;;;7.50;;
21581;SDS011;10952;50.836;4.348;2023-05-10T09:51:27;9.73;;;6.73;;
21581;SDS011;10952;50.836;4.348;2023-05-10T09:56:38;8.77;;;6.30;;
21581;SDS011;10952;50.836;4.348;2023-05-10T09:59:06;10.30;;;6.90;;
21581;SDS011;10952;50.836;4.348;2023-05-10T10:01:33;10.27;;;6.53;;
21581;SDS011;10952;50.836;4.348;2023-05-10T10:04:02;10.33;;;7.23;;
21581;SDS011;10952;50.836;4.348;2023-05-10T10:06:34;12.90;;;7.10;;
21581;SDS011;10952;50.836;4.348;2023-05-10T10:09:03;11.30;;;6.47;;
21581;SDS011;10952;50.836;4.348;2023-05-10T10:11:30;10.27;;;6.47;;
21581;SDS011;10952;50.836;4.348;2023-05-10T10:13:56;11.37;;;6.90;;
21581;SDS011;10952;50.836;4.348;2023-05-10T10:16:21;13.80;;;7.37;;
21581;SDS011;10952;50.836;4.348;2023-05-10T10:18:48;13.33;;;8.47;;
21581;SDS011;10952;50.836;4.348;2023-05-10T10:21:15;10.87;;;6.93;;
21581;SDS011;10952;50.836;4.348;2023-05-10T10:23:41;11.20;;;8.03;;
21581;SDS011;10952;50.836;4.348;2023-05-10T10:26:08;11.17;;;6.50;;
21581;SDS011;10952;50.836;4.348;2023-05-10T10:31:41;13.27;;;8.37;;
21581;SDS011;10952;50.836;4.348;2023-05-10T10:34:21;11.50;;;7.37;;
21581;SDS011;10952;50.836;4.348;2023-05-10T10:36:52;12.47;;;7.60;;
21581;SDS011;10952;50.836;4.348;2023-05-10T10:39:18;13.03;;;7.97;;
21581;SDS011;10952;50.836;4.348;2023-05-10T10:54:58;13.30;;;6.80;;
21581;SDS011;10952;50.836;4.348;2023-05-10T10:57:26;10.87;;;6.33;;
21581;SDS011;10952;50.836;4.348;2023-05-10T11:02:49;8.63;;;6.00;;
21581;SDS011;10952;50.836;4.348;2023-05-10T11:08:01;12.30;;;6.93;;
21581;SDS011;10952;50.836;4.348;2023-05-10T11:10:39;12.57;;;6.77;;
21581;SDS011;10952;50.836;4.348;2023-05-10T11:13:14;13.77;;;8.63;;
21581;SDS011;10952;50.836;4.348;2023-05-10T11:15:39;16.20;;;7.30;;
21581;SDS011;10952;50.836;4.348;2023-05-10T11:18:16;11.50;;;6.53;;
21581;SDS011;10952;50.836;4.348;2023-05-10T11:20:42;11.73;;;7.13;;
21581;SDS011;10952;50.836;4.348;2023-05-10T11:23:11;9.70;;;6.03;;
21581;SDS011;10952;50.836;4.348;2023-05-10T11:25:41;10.97;;;6.10;;
21581;SDS011;10952;50.836;4.348;2023-05-10T11:28:08;12.90;;;7.00;;
21581;SDS011;10952;50.836;4.348;2023-05-10T11:30:35;10.10;;;6.90;;
21581;SDS011;10952;50.836;4.348;2023-05-10T11:33:02;8.43;;;5.97;;
21581;SDS011;10952;50.836;4.348;2023-05-10T11:35:28;11.63;;;6.83;;
21581;SDS011;10952;50.836;4.348;2023-05-10T11:37:54;8.60;;;6.10;;
21581;SDS011;10952;50.836;4.348;2023-05-10T11:40:22;11.40;;;7.40;;
21581;SDS011;10952;50.836;4.348;2023-05-10T11:42:51;10.33;;;6.50;;
21581;SDS011;10952;50.836;4.348;2023-05-10T11:45:17;16.97;;;7.60;;
21581;SDS011;10952;50.836;4.348;2023-05-10T11:47:42;14.30;;;7.70;;
21581;SDS011;10952;50.836;4.348;2023-05-10T11:50:09;11.77;;;6.93;;
21581;SDS011;10952;50.836;4.348;2023-05-10T11:52:36;10.40;;;6.87;;
21581;SDS011;10952;50.836;4.348;2023-05-10T11:55:04;10.43;;;7.10;;
21581;SDS011;10952;50.836;4.348;2023-05-10T11:57:30;11.30;;;6.60;;
21581;SDS011;10952;50.836;4.348;2023-05-10T11:59:57;11.03;;;6.73;;
21581;SDS011;10952;50.836;4.348;2023-05-10T12:02:23;12.97;;;9.20;;
21581;SDS011;10952;50.836;4.348;2023-05-10T12:04:49;9.70;;;6.73;;
21581;SDS011;10952;50.836;4.348;2023-05-10T12:07:16;11.50;;;7.13;;
21581;SDS011;10952;50.836;4.348;2023-05-10T12:09:43;11.47;;;7.40;;
21581;SDS011;10952;50.836;4.348;2023-05-10T12:12:10;9.97;;;6.80;;
21581;SDS011;10952;50.836;4.348;2023-05-10T12:14:40;9.50;;;6.57;;
21581;SDS011;10952;50.836;4.348;2023-05-10T12:17:06;9.60;;;6.00;;
21581;SDS011;10952;50.836;4.348;2023-05-10T12:19:37;11.30;;;6.13;;
21581;SDS011;10952;50.836;4.348;2023-05-10T12:22:06;9.97;;;6.30;;
21581;SDS011;10952;50.836;4.348;2023-05-10T12:24:36;10.00;;;7.33;;
21581;SDS011;10952;50.836;4.348;2023-05-10T12:27:07;11.37;;;7.03;;
21581;SDS011;10952;50.836;4.348;2023-05-10T12:29:33;10.63;;;6.27;;
21581;SDS011;10952;50.836;4.348;2023-05-10T12:31:59;12.43;;;7.97;;
21581;SDS011;10952;50.836;4.348;2023-05-10T12:34:32;13.50;;;8.20;;
21581;SDS011;10952;50.836;4.348;2023-05-10T12:37:00;11.67;;;7.53;;
21581;SDS011;10952;50.836;4.348;2023-05-10T12:39:26;11.47;;;6.97;;
21581;SDS011;10952;50.836;4.348;2023-05-10T12:42:06;11.90;;;7.67;;
21581;SDS011;10952;50.836;4.348;2023-05-10T12:44:32;10.40;;;7.73;;
21581;SDS011;10952;50.836;4.348;2023-05-10T12:46:57;12.10;;;7.57;;
21581;SDS011;10952;50.836;4.348;2023-05-10T12:49:23;13.20;;;7.60;;
21581;SDS011;10952;50.836;4.348;2023-05-10T12:51:48;10.80;;;6.63;;
21581;SDS011;10952;50.836;4.348;2023-05-10T12:54:14;8.80;;;5.83;;
21581;SDS011;10952;50.836;4.348;2023-05-10T12:56:40;9.30;;;5.60;;
21581;SDS011;10952;50.836;4.348;2023-05-10T12:59:07;13.17;;;6.10;;
21581;SDS011;10952;50.836;4.348;2023-05-10T13:01:33;11.83;;;5.83;;
21581;SDS011;10952;50.836;4.348;2023-05-10T13:03:58;9.60;;;6.03;;
21581;SDS011;10952;50.836;4.348;2023-05-10T13:06:25;9.30;;;5.70;;
21581;SDS011;10952;50.836;4.348;2023-05-10T13:08:50;7.43;;;4.40;;
21581;SDS011;10952;50.836;4.348;2023-05-10T13:11:16;8.47;;;5.87;;
21581;SDS011;10952;50.836;4.348;2023-05-10T13:13:44;12.23;;;5.97;;
21581;SDS011;10952;50.836;4.348;2023-05-10T13:16:10;9.60;;;5.57;;
21581;SDS011;10952;50.836;4.348;2023-05-10T13:18:35;12.63;;;6.13;;
21581;SDS011;10952;50.836;4.348;2023-05-10T13:21:01;10.53;;;6.17;;
21581;SDS011;10952;50.836;4.348;2023-05-10T13:23:28;11.53;;;6.17;;
21581;SDS011;10952;50.836;4.348;2023-05-10T13:25:54;9.50;;;5.80;;
21581;SDS011;10952;50.836;4.348;2023-05-10T13:28:20;11.57;;;7.33;;
21581;SDS011;10952;50.836;4.348;2023-05-10T13:30:45;13.73;;;7.70;;
21581;SDS011;10952;50.836;4.348;2023-05-10T13:33:11;10.77;;;7.53;;
21581;SDS011;10952;50.836;4.348;2023-05-10T13:35:37;14.00;;;7.63;;
21581;SDS011;10952;50.836;4.348;2023-05-10T13:38:02;11.30;;;6.03;;
21581;SDS011;10952;50.836;4.348;2023-05-10T13:40:28;11.13;;;6.73;;
21581;SDS011;10952;50.836;4.348;2023-05-10T13:42:54;14.03;;;7.67;;
21581;SDS011;10952;50.836;4.348;2023-05-10T13:45:19;10.10;;;7.03;;
21581;SDS011;10952;50.836;4.348;2023-05-10T13:47:45;11.57;;;6.57;;
21581;SDS011;10952;50.836;4.348;2023-05-10T13:50:11;10.83;;;7.73;;
21581;SDS011;10952;50.836;4.348;2023-05-10T13:52:37;12.60;;;7.87;;
21581;SDS011;10952;50.836;4.348;2023-05-10T13:55:02;14.03;;;8.07;;
21581;SDS011;10952;50.836;4.348;2023-05-10T13:57:28;14.70;;;8.03;;
21581;SDS011;10952;50.836;4.348;2023-05-10T13:59:55;16.17;;;9.83;;
21581;SDS011;10952;50.836;4.348;2023-05-10T14:02:22;14.97;;;9.83;;
21581;SDS011;10952;50.836;4.348;2023-05-10T14:04:48;15.53;;;10.70;;
21581;SDS011;10952;50.836;4.348;2023-05-10T14:07:13;19.13;;;10.80;;
21581;SDS011;10952;50.836;4.348;2023-05-10T14:09:39;13.13;;;8.83;;
21581;SDS011;10952;50.836;4.348;2023-05-10T14:12:05;16.87;;;9.70;;
21581;SDS011;10952;50.836;4.348;2023-05-10T14:14:30;15.17;;;10.53;;
21581;SDS011;10952;50.836;4.348;2023-05-10T14:16:56;16.03;;;10.73;;
21581;SDS011;10952;50.836;4.348;2023-05-10T14:19:22;17.43;;;11.13;;
21581;SDS011;10952;50.836;4.348;2023-05-10T14:21:47;17.67;;;11.20;;
21581;SDS011;10952;50.836;4.348;2023-05-10T14:24:13;17.63;;;10.17;;
21581;SDS011;10952;50.836;4.348;2023-05-10T14:26:39;17.23;;;10.93;;
21581;SDS011;10952;50.836;4.348;2023-05-10T14:29:05;31.77;;;20.07;;
21581;SDS011;10952;50.836;4.348;2023-05-10T14:31:31;19.77;;;10.03;;
21581;SDS011;10952;50.836;4.348;2023-05-10T14:33:57;12.00;;;9.00;;
21581;SDS011;10952;50.836;4.348;2023-05-10T14:36:22;20.67;;;10.57;;
21581;SDS011;10952;50.836;4.348;2023-05-10T14:38:48;17.80;;;10.67;;
21581;SDS011;10952;50.836;4.348;2023-05-10T14:41:15;15.27;;;8.93;;
21581;SDS011;10952;50.836;4.348;2023-05-10T14:43:42;13.67;;;8.73;;
21581;SDS011;10952;50.836;4.348;2023-05-10T14:46:08;18.77;;;11.20;;
21581;SDS011;10952;50.836;4.348;2023-05-10T14:48:34;16.33;;;11.27;;
21581;SDS011;10952;50.836;4.348;2023-05-10T14:51:00;15.17;;;11.43;;
21581;SDS011;10952;50.836;4.348;2023-05-10T14:53:25;15.73;;;10.50;;
21581;SDS011;10952;50.836;4.348;2023-05-10T14:55:51;14.97;;;8.13;;
21581;SDS011;10952;50.836;4.348;2023-05-10T14:58:17;17.23;;;10.40;;
21581;SDS011;10952;50.836;4.348;2023-05-10T15:00:42;14.93;;;9.90;;
21581;SDS011;10952;50.836;4.348;2023-05-10T15:03:08;17.40;;;10.57;;
21581;SDS011;10952;50.836;4.348;2023-05-10T15:05:34;16.70;;;10.37;;
21581;SDS011;10952;50.836;4.348;2023-05-10T15:08:02;12.47;;;7.70;;
21581;SDS011;10952;50.836;4.348;2023-05-10T15:10:27;10.07;;;5.70;;
21581;SDS011;10952;50.836;4.348;2023-05-10T15:12:53;12.03;;;5.00;;
21581;SDS011;10952;50.836;4.348;2023-05-10T15:15:19;9.43;;;5.03;;
21581;SDS011;10952;50.836;4.348;2023-05-10T15:17:44;9.77;;;5.17;;